sensor_id;sensor_type;location;lat;lon;timestamp;P1;durP1;ratioP1;P2;durP2;ratioP2
57826;SDS011;43656;57.746;11.780;2023-11-21T00:00:49;13.13;;;9.50;;
57826;SDS011;43656;57.746;11.780;2023-11-21T00:03:14;14.00;;;9.13;;
57826;SDS011;43656;57.746;11.780;2023-11-21T00:05:40;13.75;;;9.77;;
57826;SDS011;43656;57.746;11.780;2023-11-21T00:08:06;12.75;;;9.57;;
57826;SDS011;43656;57.746;11.780;2023-11-21T00:10:32;12.10;;;9.25;;
57826;SDS011;43656;57.746;11.780;2023-11-21T00:12:58;13.48;;;9.80;;
57826;SDS011;43656;57.746;11.780;2023-11-21T00:15:23;12.73;;;9.88;;
57826;SDS011;43656;57.746;11.780;2023-11-21T00:17:49;11.93;;;9.63;;
57826;SDS011;43656;57.746;11.780;2023-11-21T00:20:14;14.95;;;9.70;;
57826;SDS011;43656;57.746;11.780;2023-11-21T00:22:40;12.02;;;9.15;;
57826;SDS011;43656;57.746;11.780;2023-11-21T00:25:06;13.95;;;10.30;;
57826;SDS011;43656;57.746;11.780;2023-11-21T00:27:34;12.68;;;9.65;;
57826;SDS011;43656;57.746;11.780;2023-11-21T00:30:03;14.63;;;10.55;;
57826;SDS011;43656;57.746;11.780;2023-11-21T00:32:32;12.93;;;9.35;;
57826;SDS011;43656;57.746;11.780;2023-11-21T00:34:57;15.00;;;10.57;;
57826;SDS011;43656;57.746;11.780;2023-11-21T00:37:24;14.18;;;10.32;;
57826;SDS011;43656;57.746;11.780;2023-11-21T00:39:50;15.57;;;10.38;;
57826;SDS011;43656;57.746;11.780;2023-11-21T00:42:15;14.05;;;10.52;;
57826;SDS011;43656;57.746;11.780;2023-11-21T00:44:40;15.23;;;10.88;;
57826;SDS011;43656;57.746;11.780;2023-11-21T00:47:06;14.02;;;10.90;;
57826;SDS011;43656;57.746;11.780;2023-11-21T00:49:33;14.27;;;10.10;;
57826;SDS011;43656;57.746;11.780;2023-11-21T00:51:58;13.73;;;10.95;;
57826;SDS011;43656;57.746;11.780;2023-11-21T00:54:24;12.75;;;10.32;;
57826;SDS011;43656;57.746;11.780;2023-11-21T00:56:49;14.30;;;10.10;;
57826;SDS011;43656;57.746;11.780;2023-11-21T00:59:14;13.88;;;10.63;;
57826;SDS011;43656;57.746;11.780;2023-11-21T01:01:40;14.65;;;10.98;;
57826;SDS011;43656;57.746;11.780;2023-11-21T01:04:06;15.85;;;11.65;;
57826;SDS011;43656;57.746;11.780;2023-11-21T01:06:32;14.90;;;11.00;;
57826;SDS011;43656;57.746;11.780;2023-11-21T01:08:58;14.18;;;10.90;;
57826;SDS011;43656;57.746;11.780;2023-11-21T01:11:23;13.00;;;10.82;;
57826;SDS011;43656;57.746;11.780;2023-11-21T01:13:49;15.90;;;11.70;;
57826;SDS011;43656;57.746;11.780;2023-11-21T01:16:14;13.77;;;11.52;;
57826;SDS011;43656;57.746;11.780;2023-11-21T01:18:40;17.02;;;11.65;;
57826;SDS011;43656;57.746;11.780;2023-11-21T01:21:05;13.98;;;10.75;;
57826;SDS011;43656;57.746;11.780;2023-11-21T01:23:31;15.55;;;10.90;;
57826;SDS011;43656;57.746;11.780;2023-11-21T01:25:56;13.40;;;10.68;;
57826;SDS011;43656;57.746;11.780;2023-11-21T01:28:22;14.85;;;11.45;;
57826;SDS011;43656;57.746;11.780;2023-11-21T01:30:48;13.40;;;11.05;;
57826;SDS011;43656;57.746;11.780;2023-11-21T01:33:13;13.68;;;10.98;;
57826;SDS011;43656;57.746;11.780;2023-11-21T01:35:40;14.55;;;11.70;;
57826;SDS011;43656;57.746;11.780;2023-11-21T01:38:06;13.77;;;10.60;;
57826;SDS011;43656;57.746;11.780;2023-11-21T01:40:33;14.93;;;11.32;;
57826;SDS011;43656;57.746;11.780;2023-11-21T01:42:58;15.18;;;11.40;;
57826;SDS011;43656;57.746;11.780;2023-11-21T01:45:24;15.60;;;11.55;;
57826;SDS011;43656;57.746;11.780;2023-11-21T01:47:51;13.70;;;11.00;;
57826;SDS011;43656;57.746;11.780;2023-11-21T01:50:17;13.32;;;11.02;;
57826;SDS011;43656;57.746;11.780;2023-11-21T01:52:43;14.15;;;10.88;;
57826;SDS011;43656;57.746;11.780;2023-11-21T01:55:11;16.08;;;11.02;;
57826;SDS011;43656;57.746;11.780;2023-11-21T01:57:39;14.27;;;10.63;;
57826;SDS011;43656;57.746;11.780;2023-11-21T02:00:05;15.65;;;10.95;;
57826;SDS011;43656;57.746;11.780;2023-11-21T02:02:51;16.27;;;11.57;;
57826;SDS011;43656;57.746;11.780;2023-11-21T02:05:18;15.32;;;10.80;;
57826;SDS011;43656;57.746;11.780;2023-11-21T02:08:02;16.00;;;11.20;;
57826;SDS011;43656;57.746;11.780;2023-11-21T02:10:30;14.98;;;11.10;;
57826;SDS011;43656;57.746;11.780;2023-11-21T02:12:56;13.63;;;10.45;;
57826;SDS011;43656;57.746;11.780;2023-11-21T02:15:22;13.82;;;10.45;;
57826;SDS011;43656;57.746;11.780;2023-11-21T02:17:51;13.75;;;11.18;;
57826;SDS011;43656;57.746;11.780;2023-11-21T02:20:18;13.60;;;10.55;;
57826;SDS011;43656;57.746;11.780;2023-11-21T02:22:51;13.85;;;10.68;;
57826;SDS011;43656;57.746;11.780;2023-11-21T02:25:24;12.43;;;9.73;;
57826;SDS011;43656;57.746;11.780;2023-11-21T02:27:54;14.82;;;10.15;;
57826;SDS011;43656;57.746;11.780;2023-11-21T02:30:21;12.75;;;10.38;;
57826;SDS011;43656;57.746;11.780;2023-11-21T02:32:49;14.38;;;10.57;;
57826;SDS011;43656;57.746;11.780;2023-11-21T02:35:18;14.88;;;10.48;;
57826;SDS011;43656;57.746;11.780;2023-11-21T02:37:46;14.30;;;10.30;;
57826;SDS011;43656;57.746;11.780;2023-11-21T02:40:11;16.83;;;11.30;;
57826;SDS011;43656;57.746;11.780;2023-11-21T02:42:37;11.95;;;10.27;;
57826;SDS011;43656;57.746;11.780;2023-11-21T02:45:06;14.30;;;10.48;;
57826;SDS011;43656;57.746;11.780;2023-11-21T02:47:33;13.38;;;10.20;;
57826;SDS011;43656;57.746;11.780;2023-11-21T02:49:58;13.30;;;10.93;;
57826;SDS011;43656;57.746;11.780;2023-11-21T02:52:24;12.70;;;9.70;;
57826;SDS011;43656;57.746;11.780;2023-11-21T02:54:50;12.25;;;10.05;;
57826;SDS011;43656;57.746;11.780;2023-11-21T02:57:16;13.43;;;10.32;;
57826;SDS011;43656;57.746;11.780;2023-11-21T02:59:41;15.85;;;10.38;;
57826;SDS011;43656;57.746;11.780;2023-11-21T03:02:07;12.88;;;9.75;;
57826;SDS011;43656;57.746;11.780;2023-11-21T03:04:33;15.40;;;9.95;;
57826;SDS011;43656;57.746;11.780;2023-11-21T03:06:59;14.15;;;10.77;;
57826;SDS011;43656;57.746;11.780;2023-11-21T03:09:25;13.57;;;10.80;;
57826;SDS011;43656;57.746;11.780;2023-11-21T03:11:51;13.23;;;10.35;;
57826;SDS011;43656;57.746;11.780;2023-11-21T03:14:17;15.45;;;10.57;;
57826;SDS011;43656;57.746;11.780;2023-11-21T03:16:43;14.38;;;10.55;;
57826;SDS011;43656;57.746;11.780;2023-11-21T03:19:10;13.98;;;10.77;;
57826;SDS011;43656;57.746;11.780;2023-11-21T03:21:36;15.00;;;9.82;;
57826;SDS011;43656;57.746;11.780;2023-11-21T03:24:01;13.05;;;9.90;;
57826;SDS011;43656;57.746;11.780;2023-11-21T03:26:27;15.10;;;9.82;;
57826;SDS011;43656;57.746;11.780;2023-11-21T03:28:53;14.77;;;9.90;;
57826;SDS011;43656;57.746;11.780;2023-11-21T03:31:18;14.60;;;10.50;;
57826;SDS011;43656;57.746;11.780;2023-11-21T03:33:44;14.43;;;9.52;;
57826;SDS011;43656;57.746;11.780;2023-11-21T03:36:10;12.27;;;9.75;;
57826;SDS011;43656;57.746;11.780;2023-11-21T03:38:36;12.63;;;9.88;;
57826;SDS011;43656;57.746;11.780;2023-11-21T03:41:02;14.85;;;9.65;;
57826;SDS011;43656;57.746;11.780;2023-11-21T03:43:28;11.73;;;9.63;;
57826;SDS011;43656;57.746;11.780;2023-11-21T03:45:54;12.57;;;8.98;;
57826;SDS011;43656;57.746;11.780;2023-11-21T03:48:19;11.82;;;8.82;;
57826;SDS011;43656;57.746;11.780;2023-11-21T03:50:45;12.82;;;9.35;;
57826;SDS011;43656;57.746;11.780;2023-11-21T03:53:12;13.60;;;9.15;;
57826;SDS011;43656;57.746;11.780;2023-11-21T03:55:37;10.48;;;8.65;;
57826;SDS011;43656;57.746;11.780;2023-11-21T03:58:03;11.50;;;9.00;;
57826;SDS011;43656;57.746;11.780;2023-11-21T04:00:28;12.52;;;8.82;;
57826;SDS011;43656;57.746;11.780;2023-11-21T04:02:54;12.02;;;8.88;;
57826;SDS011;43656;57.746;11.780;2023-11-21T04:05:20;10.43;;;8.38;;
57826;SDS011;43656;57.746;11.780;2023-11-21T04:07:47;12.10;;;9.07;;
57826;SDS011;43656;57.746;11.780;2023-11-21T04:10:13;11.65;;;8.38;;
57826;SDS011;43656;57.746;11.780;2023-11-21T04:12:38;12.63;;;8.82;;
57826;SDS011;43656;57.746;11.780;2023-11-21T04:15:04;9.77;;;8.27;;
57826;SDS011;43656;57.746;11.780;2023-11-21T04:17:29;10.77;;;8.23;;
57826;SDS011;43656;57.746;11.780;2023-11-21T04:19:55;11.27;;;8.68;;
57826;SDS011;43656;57.746;11.780;2023-11-21T04:22:21;14.25;;;8.73;;
57826;SDS011;43656;57.746;11.780;2023-11-21T04:24:47;11.05;;;8.43;;
57826;SDS011;43656;57.746;11.780;2023-11-21T04:27:12;11.23;;;7.88;;
57826;SDS011;43656;57.746;11.780;2023-11-21T04:29:39;10.90;;;7.93;;
57826;SDS011;43656;57.746;11.780;2023-11-21T04:32:04;10.68;;;8.07;;
57826;SDS011;43656;57.746;11.780;2023-11-21T04:34:30;10.30;;;8.25;;
57826;SDS011;43656;57.746;11.780;2023-11-21T04:36:56;13.85;;;8.85;;
57826;SDS011;43656;57.746;11.780;2023-11-21T04:39:22;11.52;;;8.93;;
57826;SDS011;43656;57.746;11.780;2023-11-21T04:41:47;11.95;;;8.82;;
57826;SDS011;43656;57.746;11.780;2023-11-21T04:44:12;12.27;;;7.93;;
57826;SDS011;43656;57.746;11.780;2023-11-21T04:46:38;12.77;;;8.73;;
57826;SDS011;43656;57.746;11.780;2023-11-21T04:49:03;10.80;;;8.27;;
57826;SDS011;43656;57.746;11.780;2023-11-21T04:51:29;12.82;;;8.77;;
57826;SDS011;43656;57.746;11.780;2023-11-21T04:53:57;13.05;;;8.77;;
57826;SDS011;43656;57.746;11.780;2023-11-21T04:56:22;12.35;;;8.80;;
57826;SDS011;43656;57.746;11.780;2023-11-21T04:58:47;10.73;;;7.90;;
57826;SDS011;43656;57.746;11.780;2023-11-21T05:01:13;11.93;;;8.05;;
57826;SDS011;43656;57.746;11.780;2023-11-21T05:03:38;12.88;;;8.75;;
57826;SDS011;43656;57.746;11.780;2023-11-21T05:06:04;10.27;;;8.45;;
57826;SDS011;43656;57.746;11.780;2023-11-21T05:08:30;11.80;;;8.88;;
57826;SDS011;43656;57.746;11.780;2023-11-21T05:10:56;12.38;;;8.85;;
57826;SDS011;43656;57.746;11.780;2023-11-21T05:13:21;12.07;;;8.50;;
57826;SDS011;43656;57.746;11.780;2023-11-21T05:15:52;12.43;;;8.52;;
57826;SDS011;43656;57.746;11.780;2023-11-21T05:18:18;10.43;;;7.95;;
57826;SDS011;43656;57.746;11.780;2023-11-21T05:20:43;11.93;;;8.88;;
57826;SDS011;43656;57.746;11.780;2023-11-21T05:23:09;11.18;;;8.45;;
57826;SDS011;43656;57.746;11.780;2023-11-21T05:25:34;11.23;;;8.65;;
57826;SDS011;43656;57.746;11.780;2023-11-21T05:28:00;10.75;;;8.40;;
57826;SDS011;43656;57.746;11.780;2023-11-21T05:30:26;8.98;;;7.78;;
57826;SDS011;43656;57.746;11.780;2023-11-21T05:32:52;12.32;;;8.60;;
57826;SDS011;43656;57.746;11.780;2023-11-21T05:35:18;11.40;;;7.55;;
57826;SDS011;43656;57.746;11.780;2023-11-21T05:37:44;11.02;;;7.68;;
57826;SDS011;43656;57.746;11.780;2023-11-21T05:40:10;10.30;;;7.80;;
57826;SDS011;43656;57.746;11.780;2023-11-21T05:42:38;11.73;;;7.68;;
57826;SDS011;43656;57.746;11.780;2023-11-21T05:45:05;10.25;;;7.38;;
57826;SDS011;43656;57.746;11.780;2023-11-21T05:47:42;10.07;;;7.10;;
57826;SDS011;43656;57.746;11.780;2023-11-21T05:50:11;11.07;;;7.78;;
57826;SDS011;43656;57.746;11.780;2023-11-21T05:52:39;10.88;;;7.35;;
57826;SDS011;43656;57.746;11.780;2023-11-21T05:55:05;11.57;;;8.05;;
57826;SDS011;43656;57.746;11.780;2023-11-21T05:57:32;10.52;;;8.18;;
57826;SDS011;43656;57.746;11.780;2023-11-21T05:59:59;12.77;;;8.30;;
57826;SDS011;43656;57.746;11.780;2023-11-21T06:02:24;11.85;;;7.50;;
57826;SDS011;43656;57.746;11.780;2023-11-21T06:04:51;10.05;;;7.72;;
57826;SDS011;43656;57.746;11.780;2023-11-21T06:07:16;9.98;;;8.05;;
57826;SDS011;43656;57.746;11.780;2023-11-21T06:09:42;9.98;;;7.65;;
57826;SDS011;43656;57.746;11.780;2023-11-21T06:12:07;10.93;;;7.60;;
57826;SDS011;43656;57.746;11.780;2023-11-21T06:14:32;13.00;;;8.10;;
57826;SDS011;43656;57.746;11.780;2023-11-21T06:17:00;11.80;;;8.48;;
57826;SDS011;43656;57.746;11.780;2023-11-21T06:19:26;10.13;;;7.97;;
57826;SDS011;43656;57.746;11.780;2023-11-21T06:21:52;11.80;;;7.78;;
57826;SDS011;43656;57.746;11.780;2023-11-21T06:24:17;13.10;;;7.90;;
57826;SDS011;43656;57.746;11.780;2023-11-21T06:26:42;10.45;;;7.85;;
57826;SDS011;43656;57.746;11.780;2023-11-21T06:29:09;13.18;;;8.30;;
57826;SDS011;43656;57.746;11.780;2023-11-21T06:31:34;11.48;;;8.30;;
57826;SDS011;43656;57.746;11.780;2023-11-21T06:34:00;10.07;;;7.93;;
57826;SDS011;43656;57.746;11.780;2023-11-21T06:36:25;10.63;;;8.18;;
57826;SDS011;43656;57.746;11.780;2023-11-21T06:38:51;10.38;;;7.78;;
57826;SDS011;43656;57.746;11.780;2023-11-21T06:41:17;10.93;;;8.00;;
57826;SDS011;43656;57.746;11.780;2023-11-21T06:43:43;10.65;;;8.32;;
57826;SDS011;43656;57.746;11.780;2023-11-21T06:46:13;18.65;;;12.52;;
57826;SDS011;43656;57.746;11.780;2023-11-21T06:48:44;12.55;;;9.50;;
57826;SDS011;43656;57.746;11.780;2023-11-21T06:51:10;14.93;;;9.55;;
57826;SDS011;43656;57.746;11.780;2023-11-21T06:53:36;9.52;;;7.45;;
57826;SDS011;43656;57.746;11.780;2023-11-21T06:56:02;11.65;;;8.30;;
57826;SDS011;43656;57.746;11.780;2023-11-21T06:58:28;11.40;;;8.05;;
57826;SDS011;43656;57.746;11.780;2023-11-21T07:00:53;12.57;;;8.30;;
57826;SDS011;43656;57.746;11.780;2023-11-21T07:03:19;11.93;;;8.40;;
57826;SDS011;43656;57.746;11.780;2023-11-21T07:05:45;12.07;;;8.32;;
57826;SDS011;43656;57.746;11.780;2023-11-21T07:08:10;10.57;;;7.57;;
57826;SDS011;43656;57.746;11.780;2023-11-21T07:10:36;12.77;;;9.40;;
57826;SDS011;43656;57.746;11.780;2023-11-21T07:13:03;15.00;;;11.38;;
57826;SDS011;43656;57.746;11.780;2023-11-21T07:15:28;13.48;;;8.05;;
57826;SDS011;43656;57.746;11.780;2023-11-21T07:17:53;10.13;;;8.00;;
57826;SDS011;43656;57.746;11.780;2023-11-21T07:20:19;13.05;;;8.60;;
57826;SDS011;43656;57.746;11.780;2023-11-21T07:22:44;10.75;;;8.07;;
57826;SDS011;43656;57.746;11.780;2023-11-21T07:25:10;10.82;;;8.27;;
57826;SDS011;43656;57.746;11.780;2023-11-21T07:27:36;11.57;;;7.68;;
57826;SDS011;43656;57.746;11.780;2023-11-21T07:30:02;11.43;;;7.85;;
57826;SDS011;43656;57.746;11.780;2023-11-21T07:32:32;13.05;;;8.48;;
57826;SDS011;43656;57.746;11.780;2023-11-21T07:34:58;11.70;;;8.15;;
57826;SDS011;43656;57.746;11.780;2023-11-21T07:37:26;11.80;;;8.20;;
57826;SDS011;43656;57.746;11.780;2023-11-21T07:39:53;10.80;;;7.75;;
57826;SDS011;43656;57.746;11.780;2023-11-21T07:42:21;10.50;;;7.82;;
57826;SDS011;43656;57.746;11.780;2023-11-21T07:44:53;11.15;;;7.57;;
57826;SDS011;43656;57.746;11.780;2023-11-21T07:47:18;14.18;;;8.60;;
57826;SDS011;43656;57.746;11.780;2023-11-21T07:49:43;15.38;;;8.60;;
57826;SDS011;43656;57.746;11.780;2023-11-21T07:52:10;13.23;;;9.15;;
57826;SDS011;43656;57.746;11.780;2023-11-21T07:54:35;13.50;;;8.68;;
57826;SDS011;43656;57.746;11.780;2023-11-21T07:57:01;13.00;;;8.07;;
57826;SDS011;43656;57.746;11.780;2023-11-21T07:59:29;11.98;;;8.02;;
57826;SDS011;43656;57.746;11.780;2023-11-21T08:01:54;12.23;;;8.57;;
57826;SDS011;43656;57.746;11.780;2023-11-21T08:04:20;10.65;;;7.93;;
57826;SDS011;43656;57.746;11.780;2023-11-21T08:06:45;12.80;;;8.80;;
57826;SDS011;43656;57.746;11.780;2023-11-21T08:09:11;11.93;;;7.57;;
57826;SDS011;43656;57.746;11.780;2023-11-21T08:11:37;11.55;;;8.10;;
57826;SDS011;43656;57.746;11.780;2023-11-21T08:14:04;12.18;;;8.00;;
57826;SDS011;43656;57.746;11.780;2023-11-21T08:16:30;11.50;;;8.48;;
57826;SDS011;43656;57.746;11.780;2023-11-21T08:18:55;10.70;;;7.70;;
57826;SDS011;43656;57.746;11.780;2023-11-21T08:21:20;11.30;;;7.45;;
57826;SDS011;43656;57.746;11.780;2023-11-21T08:23:48;13.65;;;8.20;;
57826;SDS011;43656;57.746;11.780;2023-11-21T08:26:18;12.57;;;8.30;;
57826;SDS011;43656;57.746;11.780;2023-11-21T08:28:44;12.27;;;7.78;;
57826;SDS011;43656;57.746;11.780;2023-11-21T08:31:09;13.20;;;8.70;;
57826;SDS011;43656;57.746;11.780;2023-11-21T08:33:35;11.40;;;8.20;;
57826;SDS011;43656;57.746;11.780;2023-11-21T08:36:00;14.68;;;8.95;;
57826;SDS011;43656;57.746;11.780;2023-11-21T08:38:26;12.27;;;8.15;;
57826;SDS011;43656;57.746;11.780;2023-11-21T08:40:53;11.10;;;7.97;;
57826;SDS011;43656;57.746;11.780;2023-11-21T08:43:19;10.95;;;7.57;;
57826;SDS011;43656;57.746;11.780;2023-11-21T08:45:45;13.25;;;8.35;;
57826;SDS011;43656;57.746;11.780;2023-11-21T08:48:11;11.68;;;8.25;;
57826;SDS011;43656;57.746;11.780;2023-11-21T08:50:37;15.82;;;8.98;;
57826;SDS011;43656;57.746;11.780;2023-11-21T08:53:02;12.73;;;8.63;;
57826;SDS011;43656;57.746;11.780;2023-11-21T08:55:27;14.00;;;8.50;;
57826;SDS011;43656;57.746;11.780;2023-11-21T08:57:53;10.80;;;7.55;;
57826;SDS011;43656;57.746;11.780;2023-11-21T09:00:19;12.85;;;8.65;;
57826;SDS011;43656;57.746;11.780;2023-11-21T09:02:44;11.77;;;8.63;;
57826;SDS011;43656;57.746;11.780;2023-11-21T09:05:10;12.80;;;8.80;;
57826;SDS011;43656;57.746;11.780;2023-11-21T09:07:37;11.07;;;8.38;;
57826;SDS011;43656;57.746;11.780;2023-11-21T09:10:04;12.05;;;7.97;;
57826;SDS011;43656;57.746;11.780;2023-11-21T09:12:32;12.88;;;7.47;;
57826;SDS011;43656;57.746;11.780;2023-11-21T09:14:58;12.07;;;8.57;;
57826;SDS011;43656;57.746;11.780;2023-11-21T09:17:23;12.90;;;7.90;;
57826;SDS011;43656;57.746;11.780;2023-11-21T09:19:49;12.50;;;8.48;;
57826;SDS011;43656;57.746;11.780;2023-11-21T09:22:16;9.70;;;7.22;;
57826;SDS011;43656;57.746;11.780;2023-11-21T09:24:42;10.65;;;7.60;;
57826;SDS011;43656;57.746;11.780;2023-11-21T09:27:08;13.45;;;7.55;;
57826;SDS011;43656;57.746;11.780;2023-11-21T09:29:34;12.65;;;7.43;;
57826;SDS011;43656;57.746;11.780;2023-11-21T09:32:00;11.80;;;7.85;;
57826;SDS011;43656;57.746;11.780;2023-11-21T09:34:26;9.85;;;6.78;;
57826;SDS011;43656;57.746;11.780;2023-11-21T09:36:52;9.80;;;6.85;;
57826;SDS011;43656;57.746;11.780;2023-11-21T09:39:17;9.57;;;7.35;;
57826;SDS011;43656;57.746;11.780;2023-11-21T09:41:44;10.43;;;7.20;;
57826;SDS011;43656;57.746;11.780;2023-11-21T09:44:17;8.70;;;6.78;;
57826;SDS011;43656;57.746;11.780;2023-11-21T09:46:47;9.48;;;6.85;;
57826;SDS011;43656;57.746;11.780;2023-11-21T09:49:14;9.18;;;6.25;;
57826;SDS011;43656;57.746;11.780;2023-11-21T09:51:44;7.80;;;6.07;;
57826;SDS011;43656;57.746;11.780;2023-11-21T09:54:13;10.07;;;6.45;;
57826;SDS011;43656;57.746;11.780;2023-11-21T09:56:41;7.78;;;5.80;;
57826;SDS011;43656;57.746;11.780;2023-11-21T09:59:07;8.75;;;6.45;;
57826;SDS011;43656;57.746;11.780;2023-11-21T10:01:38;8.35;;;6.18;;
57826;SDS011;43656;57.746;11.780;2023-11-21T10:04:04;7.32;;;5.60;;
57826;SDS011;43656;57.746;11.780;2023-11-21T10:06:36;7.05;;;5.40;;
57826;SDS011;43656;57.746;11.780;2023-11-21T10:09:03;8.13;;;5.78;;
57826;SDS011;43656;57.746;11.780;2023-11-21T10:11:36;7.38;;;5.50;;
57826;SDS011;43656;57.746;11.780;2023-11-21T10:14:06;8.93;;;5.43;;
57826;SDS011;43656;57.746;11.780;2023-11-21T10:16:35;8.40;;;5.07;;
57826;SDS011;43656;57.746;11.780;2023-11-21T10:19:04;6.85;;;5.38;;
57826;SDS011;43656;57.746;11.780;2023-11-21T10:21:34;7.45;;;5.22;;
57826;SDS011;43656;57.746;11.780;2023-11-21T10:24:00;7.13;;;5.00;;
57826;SDS011;43656;57.746;11.780;2023-11-21T10:26:26;6.80;;;5.18;;
57826;SDS011;43656;57.746;11.780;2023-11-21T10:29:00;7.55;;;5.13;;
57826;SDS011;43656;57.746;11.780;2023-11-21T10:31:30;6.03;;;5.03;;
57826;SDS011;43656;57.746;11.780;2023-11-21T10:36:40;7.10;;;5.15;;
57826;SDS011;43656;57.746;11.780;2023-11-21T10:39:06;8.13;;;4.80;;
57826;SDS011;43656;57.746;11.780;2023-11-21T10:41:32;6.60;;;4.35;;
57826;SDS011;43656;57.746;11.780;2023-11-21T10:44:00;6.07;;;4.55;;
57826;SDS011;43656;57.746;11.780;2023-11-21T10:46:26;6.05;;;4.68;;
57826;SDS011;43656;57.746;11.780;2023-11-21T10:48:52;6.70;;;4.25;;
57826;SDS011;43656;57.746;11.780;2023-11-21T10:51:21;5.90;;;3.97;;
57826;SDS011;43656;57.746;11.780;2023-11-21T10:53:49;6.40;;;4.13;;
57826;SDS011;43656;57.746;11.780;2023-11-21T10:56:18;7.15;;;4.07;;
57826;SDS011;43656;57.746;11.780;2023-11-21T10:58:46;5.18;;;4.35;;
57826;SDS011;43656;57.746;11.780;2023-11-21T11:01:14;5.45;;;4.35;;
57826;SDS011;43656;57.746;11.780;2023-11-21T11:03:42;5.82;;;3.90;;
57826;SDS011;43656;57.746;11.780;2023-11-21T11:06:09;6.70;;;4.22;;
57826;SDS011;43656;57.746;11.780;2023-11-21T11:08:39;7.18;;;3.95;;
57826;SDS011;43656;57.746;11.780;2023-11-21T11:11:05;7.03;;;4.10;;
57826;SDS011;43656;57.746;11.780;2023-11-21T11:13:31;5.30;;;3.95;;
57826;SDS011;43656;57.746;11.780;2023-11-21T11:15:58;5.93;;;3.97;;
57826;SDS011;43656;57.746;11.780;2023-11-21T11:18:25;7.63;;;4.05;;
57826;SDS011;43656;57.746;11.780;2023-11-21T11:20:51;5.65;;;4.07;;
57826;SDS011;43656;57.746;11.780;2023-11-21T11:23:43;9.18;;;3.72;;
57826;SDS011;43656;57.746;11.780;2023-11-21T11:29:01;6.40;;;3.88;;
57826;SDS011;43656;57.746;11.780;2023-11-21T11:34:26;3.90;;;3.45;;
57826;SDS011;43656;57.746;11.780;2023-11-21T11:37:07;4.88;;;3.67;;
57826;SDS011;43656;57.746;11.780;2023-11-21T11:39:36;4.78;;;3.33;;
57826;SDS011;43656;57.746;11.780;2023-11-21T11:42:02;3.95;;;3.03;;
57826;SDS011;43656;57.746;11.780;2023-11-21T11:47:19;4.43;;;3.35;;
57826;SDS011;43656;57.746;11.780;2023-11-21T11:50:05;3.85;;;3.00;;
57826;SDS011;43656;57.746;11.780;2023-11-21T11:52:48;3.40;;;2.78;;
57826;SDS011;43656;57.746;11.780;2023-11-21T11:55:17;4.35;;;3.15;;
57826;SDS011;43656;57.746;11.780;2023-11-21T11:57:44;4.60;;;2.85;;
57826;SDS011;43656;57.746;11.780;2023-11-21T12:02:56;5.05;;;3.33;;
57826;SDS011;43656;57.746;11.780;2023-11-21T12:05:24;4.53;;;3.00;;
57826;SDS011;43656;57.746;11.780;2023-11-21T12:07:56;3.38;;;2.80;;
57826;SDS011;43656;57.746;11.780;2023-11-21T12:10:33;4.13;;;3.05;;
57826;SDS011;43656;57.746;11.780;2023-11-21T12:13:01;7.95;;;5.65;;
57826;SDS011;43656;57.746;11.780;2023-11-21T12:15:27;5.88;;;3.35;;
57826;SDS011;43656;57.746;11.780;2023-11-21T12:17:56;5.30;;;3.70;;
57826;SDS011;43656;57.746;11.780;2023-11-21T12:20:25;11.05;;;6.20;;
57826;SDS011;43656;57.746;11.780;2023-11-21T12:22:55;5.80;;;4.22;;
57826;SDS011;43656;57.746;11.780;2023-11-21T12:25:25;5.95;;;3.25;;
57826;SDS011;43656;57.746;11.780;2023-11-21T12:27:54;4.95;;;3.15;;
57826;SDS011;43656;57.746;11.780;2023-11-21T12:30:21;7.00;;;3.30;;
57826;SDS011;43656;57.746;11.780;2023-11-21T12:32:52;4.57;;;3.25;;
57826;SDS011;43656;57.746;11.780;2023-11-21T12:35:18;5.57;;;3.25;;
57826;SDS011;43656;57.746;11.780;2023-11-21T12:37:46;5.53;;;3.53;;
57826;SDS011;43656;57.746;11.780;2023-11-21T12:40:13;6.32;;;3.50;;
57826;SDS011;43656;57.746;11.780;2023-11-21T12:42:43;5.82;;;3.58;;
57826;SDS011;43656;57.746;11.780;2023-11-21T12:47:47;5.32;;;3.20;;
57826;SDS011;43656;57.746;11.780;2023-11-21T12:50:24;4.30;;;3.22;;
57826;SDS011;43656;57.746;11.780;2023-11-21T12:52:53;3.70;;;2.85;;
57826;SDS011;43656;57.746;11.780;2023-11-21T12:55:23;3.88;;;3.10;;
57826;SDS011;43656;57.746;11.780;2023-11-21T12:57:49;4.25;;;2.50;;
57826;SDS011;43656;57.746;11.780;2023-11-21T13:00:17;4.45;;;2.70;;
57826;SDS011;43656;57.746;11.780;2023-11-21T13:02:55;4.32;;;3.20;;
57826;SDS011;43656;57.746;11.780;2023-11-21T13:05:28;3.60;;;2.53;;
57826;SDS011;43656;57.746;11.780;2023-11-21T13:07:55;3.92;;;2.53;;
57826;SDS011;43656;57.746;11.780;2023-11-21T13:10:26;4.15;;;2.80;;
57826;SDS011;43656;57.746;11.780;2023-11-21T13:12:59;6.18;;;2.90;;
57826;SDS011;43656;57.746;11.780;2023-11-21T13:15:29;3.50;;;2.70;;
57826;SDS011;43656;57.746;11.780;2023-11-21T13:17:56;4.22;;;2.63;;
57826;SDS011;43656;57.746;11.780;2023-11-21T13:20:23;3.90;;;2.63;;
57826;SDS011;43656;57.746;11.780;2023-11-21T13:22:57;5.60;;;2.85;;
57826;SDS011;43656;57.746;11.780;2023-11-21T13:25:24;3.55;;;2.70;;
57826;SDS011;43656;57.746;11.780;2023-11-21T13:27:53;5.15;;;2.92;;
57826;SDS011;43656;57.746;11.780;2023-11-21T13:30:19;3.80;;;2.85;;
57826;SDS011;43656;57.746;11.780;2023-11-21T13:33:04;4.30;;;3.00;;
57826;SDS011;43656;57.746;11.780;2023-11-21T13:35:32;4.18;;;2.78;;
57826;SDS011;43656;57.746;11.780;2023-11-21T13:38:12;5.70;;;2.97;;
57826;SDS011;43656;57.746;11.780;2023-11-21T13:40:50;6.50;;;2.67;;
57826;SDS011;43656;57.746;11.780;2023-11-21T13:43:18;5.38;;;3.10;;
57826;SDS011;43656;57.746;11.780;2023-11-21T13:45:47;5.68;;;2.97;;
57826;SDS011;43656;57.746;11.780;2023-11-21T13:48:23;5.57;;;3.05;;
57826;SDS011;43656;57.746;11.780;2023-11-21T13:50:50;4.97;;;2.80;;
57826;SDS011;43656;57.746;11.780;2023-11-21T13:53:35;7.78;;;3.13;;
57826;SDS011;43656;57.746;11.780;2023-11-21T13:56:02;4.25;;;3.03;;
57826;SDS011;43656;57.746;11.780;2023-11-21T13:58:28;4.07;;;3.08;;
57826;SDS011;43656;57.746;11.780;2023-11-21T14:01:11;4.45;;;2.88;;
57826;SDS011;43656;57.746;11.780;2023-11-21T14:03:55;4.78;;;2.58;;
57826;SDS011;43656;57.746;11.780;2023-11-21T14:06:53;4.40;;;2.85;;
57826;SDS011;43656;57.746;11.780;2023-11-21T14:09:23;3.85;;;3.13;;
57826;SDS011;43656;57.746;11.780;2023-11-21T14:11:58;3.90;;;2.97;;
57826;SDS011;43656;57.746;11.780;2023-11-21T14:14:25;3.75;;;2.97;;
57826;SDS011;43656;57.746;11.780;2023-11-21T14:16:53;4.78;;;3.05;;
57826;SDS011;43656;57.746;11.780;2023-11-21T14:19:20;6.10;;;2.95;;
57826;SDS011;43656;57.746;11.780;2023-11-21T14:21:47;5.32;;;3.17;;
57826;SDS011;43656;57.746;11.780;2023-11-21T14:24:15;3.75;;;2.83;;
57826;SDS011;43656;57.746;11.780;2023-11-21T14:26:43;3.55;;;2.80;;
57826;SDS011;43656;57.746;11.780;2023-11-21T14:29:13;3.70;;;2.95;;
57826;SDS011;43656;57.746;11.780;2023-11-21T14:31:44;4.07;;;3.00;;
57826;SDS011;43656;57.746;11.780;2023-11-21T14:34:09;4.10;;;2.95;;
57826;SDS011;43656;57.746;11.780;2023-11-21T14:36:37;6.40;;;3.22;;
57826;SDS011;43656;57.746;11.780;2023-11-21T14:39:04;4.45;;;3.45;;
57826;SDS011;43656;57.746;11.780;2023-11-21T14:41:38;4.40;;;3.50;;